sensor_id;sensor_type;location;lat;lon;timestamp;pressure;altitude;pressure_sealevel;temperature;humidity
66021;BME280;52789;59.980;30.346;2023-11-22T00:01:37;102448.31;;;-6.81;100.00
66021;BME280;52789;59.980;30.346;2023-11-22T00:04:03;102441.44;;;-6.84;100.00
66021;BME280;52789;59.980;30.346;2023-11-22T00:06:29;102464.63;;;-6.72;100.00
66021;BME280;52789;59.980;30.346;2023-11-22T00:08:55;102457.75;;;-6.76;100.00
66021;BME280;52789;59.980;30.346;2023-11-22T00:11:20;102464.63;;;-6.69;100.00
66021;BME280;52789;59.980;30.346;2023-11-22T00:13:46;102454.31;;;-6.78;100.00
66021;BME280;52789;59.980;30.346;2023-11-22T00:16:11;102425.97;;;-6.93;100.00
66021;BME280;52789;59.980;30.346;2023-11-22T00:18:37;102448.31;;;-6.81;100.00
66021;BME280;52789;59.980;30.346;2023-11-22T00:21:04;102422.50;;;-6.92;100.00
66021;BME280;52789;59.980;30.346;2023-11-22T00:23:30;102426.78;;;-6.88;100.00
66021;BME280;52789;59.980;30.346;2023-11-22T00:25:55;102415.66;;;-7.02;100.00
66021;BME280;52789;59.980;30.346;2023-11-22T00:28:22;102418.19;;;-6.93;100.00
66021;BME280;52789;59.980;30.346;2023-11-22T00:30:49;102442.19;;;-6.73;100.00
66021;BME280;52789;59.980;30.346;2023-11-22T00:33:15;102361.41;;;-7.24;100.00
66021;BME280;52789;59.980;30.346;2023-11-22T00:35:40;102420.69;;;-6.82;100.00
66021;BME280;52789;59.980;30.346;2023-11-22T00:38:06;102417.25;;;-6.83;100.00
66021;BME280;52789;59.980;30.346;2023-11-22T00:40:32;102416.38;;;-6.82;100.00
66021;BME280;52789;59.980;30.346;2023-11-22T00:42:57;102364.81;;;-7.15;100.00
66021;BME280;52789;59.980;30.346;2023-11-22T00:45:23;102400.88;;;-6.90;100.00
66021;BME280;52789;59.980;30.346;2023-11-22T00:47:49;102449.03;;;-6.66;100.00
66021;BME280;52789;59.980;30.346;2023-11-22T00:50:18;102430.97;;;-6.73;100.00
66021;BME280;52789;59.980;30.346;2023-11-22T00:52:47;102417.22;;;-6.81;100.00
66021;BME280;52789;59.980;30.346;2023-11-22T00:55:13;102417.19;;;-6.78;100.00
66021;BME280;52789;59.980;30.346;2023-11-22T00:57:39;102431.81;;;-6.73;100.00
66021;BME280;52789;59.980;30.346;2023-11-22T01:00:06;102439.63;;;-6.74;100.00
66021;BME280;52789;59.980;30.346;2023-11-22T01:02:35;102433.53;;;-6.72;100.00
66021;BME280;52789;59.980;30.346;2023-11-22T01:05:07;102440.47;;;-6.72;100.00
66021;BME280;52789;59.980;30.346;2023-11-22T01:07:42;102429.28;;;-6.77;100.00
66021;BME280;52789;59.980;30.346;2023-11-22T01:10:08;102409.50;;;-6.88;100.00
66021;BME280;52789;59.980;30.346;2023-11-22T01:12:34;102416.38;;;-6.82;100.00
66021;BME280;52789;59.980;30.346;2023-11-22T01:15:00;102418.97;;;-6.83;100.00
66021;BME280;52789;59.980;30.346;2023-11-22T01:17:25;102413.78;;;-6.83;100.00
66021;BME280;52789;59.980;30.346;2023-11-22T01:19:51;102424.94;;;-6.74;100.00
66021;BME280;52789;59.980;30.346;2023-11-22T01:22:17;102429.25;;;-6.74;100.00
66021;BME280;52789;59.980;30.346;2023-11-22T01:24:43;102364.81;;;-7.15;100.00
66021;BME280;52789;59.980;30.346;2023-11-22T01:27:09;102442.22;;;-6.74;100.00
66021;BME280;52789;59.980;30.346;2023-11-22T01:29:36;102413.00;;;-6.93;100.00
66021;BME280;52789;59.980;30.346;2023-11-22T01:32:01;102406.16;;;-7.03;100.00
66021;BME280;52789;59.980;30.346;2023-11-22T01:34:27;102416.47;;;-6.97;100.00
66021;BME280;52789;59.980;30.346;2023-11-22T01:36:54;102418.16;;;-6.95;100.00
66021;BME280;52789;59.980;30.346;2023-11-22T01:39:20;102424.19;;;-6.88;100.00
66021;BME280;52789;59.980;30.346;2023-11-22T01:41:46;102431.91;;;-6.82;100.00
66021;BME280;52789;59.980;30.346;2023-11-22T01:44:15;102440.50;;;-6.77;100.00
66021;BME280;52789;59.980;30.346;2023-11-22T01:46:42;102421.63;;;-6.90;100.00
66021;BME280;52789;59.980;30.346;2023-11-22T01:49:09;102419.88;;;-6.89;100.00
66021;BME280;52789;59.980;30.346;2023-11-22T01:51:37;102437.91;;;-6.77;100.00
66021;BME280;52789;59.980;30.346;2023-11-22T01:54:02;102432.72;;;-6.75;100.00
66021;BME280;52789;59.980;30.346;2023-11-22T01:56:30;102438.78;;;-6.78;100.00
66021;BME280;52789;59.980;30.346;2023-11-22T01:58:56;102450.81;;;-6.71;100.00
66021;BME280;52789;59.980;30.346;2023-11-22T02:01:23;102422.44;;;-6.84;100.00
66021;BME280;52789;59.980;30.346;2023-11-22T02:03:50;102446.47;;;-6.63;100.00
66021;BME280;52789;59.980;30.346;2023-11-22T02:06:18;102370.78;;;-7.04;100.00
66021;BME280;52789;59.980;30.346;2023-11-22T02:08:43;102405.97;;;-6.79;100.00
66021;BME280;52789;59.980;30.346;2023-11-22T02:11:09;102416.25;;;-6.70;100.00
66021;BME280;52789;59.980;30.346;2023-11-22T02:13:35;102430.00;;;-6.59;100.00
66021;BME280;52789;59.980;30.346;2023-11-22T02:16:02;102419.69;;;-6.68;100.00
66021;BME280;52789;59.980;30.346;2023-11-22T02:18:29;102399.91;;;-6.76;100.00
66021;BME280;52789;59.980;30.346;2023-11-22T02:20:56;102443.75;;;-6.50;100.00
66021;BME280;52789;59.980;30.346;2023-11-22T02:23:22;102446.31;;;-6.49;100.00
66021;BME280;52789;59.980;30.346;2023-11-22T02:25:48;102424.88;;;-6.65;100.00
66021;BME280;52789;59.980;30.346;2023-11-22T02:28:14;102447.16;;;-6.45;100.00
66021;BME280;52789;59.980;30.346;2023-11-22T02:30:40;102453.19;;;-6.45;100.00
66021;BME280;52789;59.980;30.346;2023-11-22T02:33:07;102450.59;;;-6.45;100.00
66021;BME280;52789;59.980;30.346;2023-11-22T02:35:32;102435.19;;;-6.59;100.00
66021;BME280;52789;59.980;30.346;2023-11-22T02:37:59;102449.78;;;-6.48;100.00
66021;BME280;52789;59.980;30.346;2023-11-22T02:40:25;102448.97;;;-6.53;100.00
66021;BME280;52789;59.980;30.346;2023-11-22T02:42:53;102436.06;;;-6.60;100.00
66021;BME280;52789;59.980;30.346;2023-11-22T02:45:21;102382.75;;;-6.88;100.00
66021;BME280;52789;59.980;30.346;2023-11-22T02:47:49;102447.22;;;-6.51;100.00
66021;BME280;52789;59.980;30.346;2023-11-22T02:50:16;102414.44;;;-6.59;100.00
66021;BME280;52789;59.980;30.346;2023-11-22T02:52:42;102416.09;;;-6.51;100.00
66021;BME280;52789;59.980;30.346;2023-11-22T02:55:09;102436.66;;;-6.30;100.00
66021;BME280;52789;59.980;30.346;2023-11-22T02:57:35;102393.53;;;-6.42;100.00
66021;BME280;52789;59.980;30.346;2023-11-22T03:00:05;102428.75;;;-6.19;100.00
66021;BME280;52789;59.980;30.346;2023-11-22T03:02:32;102421.00;;;-6.21;100.00
66021;BME280;52789;59.980;30.346;2023-11-22T03:04:58;102433.81;;;-6.07;100.00
66021;BME280;52789;59.980;30.346;2023-11-22T03:07:26;102422.59;;;-6.06;100.00
66021;BME280;52789;59.980;30.346;2023-11-22T03:09:52;102400.22;;;-6.18;100.00
66021;BME280;52789;59.980;30.346;2023-11-22T03:12:19;102416.50;;;-6.02;100.00
66021;BME280;52789;59.980;30.346;2023-11-22T03:14:48;102393.25;;;-6.13;100.00
66021;BME280;52789;59.980;30.346;2023-11-22T03:17:15;102394.97;;;-6.12;100.00
66021;BME280;52789;59.980;30.346;2023-11-22T03:19:40;102410.44;;;-6.03;100.00
66021;BME280;52789;59.980;30.346;2023-11-22T03:22:06;102419.03;;;-5.98;100.00
66021;BME280;52789;59.980;30.346;2023-11-22T03:24:32;102431.13;;;-5.97;100.00
66021;BME280;52789;59.980;30.346;2023-11-22T03:27:02;102432.84;;;-5.96;100.00
66021;BME280;52789;59.980;30.346;2023-11-22T03:29:30;102396.63;;;-6.05;100.00
66021;BME280;52789;59.980;30.346;2023-11-22T03:31:56;102401.81;;;-6.05;100.00
66021;BME280;52789;59.980;30.346;2023-11-22T03:34:22;102405.22;;;-6.00;100.00
66021;BME280;52789;59.980;30.346;2023-11-22T03:36:47;102361.53;;;-6.35;100.00
66021;BME280;52789;59.980;30.346;2023-11-22T03:39:15;102387.25;;;-6.18;100.00
66021;BME280;52789;59.980;30.346;2023-11-22T03:41:41;102415.63;;;-6.03;100.00
66021;BME280;52789;59.980;30.346;2023-11-22T03:44:07;102413.88;;;-6.01;100.00
66021;BME280;52789;59.980;30.346;2023-11-22T03:46:36;102413.81;;;-5.96;100.00
66021;BME280;52789;59.980;30.346;2023-11-22T03:49:05;102415.53;;;-5.94;100.00
66021;BME280;52789;59.980;30.346;2023-11-22T03:51:35;102403.53;;;-6.04;100.00
66021;BME280;52789;59.980;30.346;2023-11-22T03:54:02;102397.47;;;-6.03;100.00
66021;BME280;52789;59.980;30.346;2023-11-22T03:56:28;102413.75;;;-5.90;100.00
66021;BME280;52789;59.980;30.346;2023-11-22T03:58:54;102416.22;;;-5.84;100.00
66021;BME280;52789;59.980;30.346;2023-11-22T04:01:20;102409.28;;;-5.82;100.00
66021;BME280;52789;59.980;30.346;2023-11-22T04:03:46;102413.56;;;-5.79;100.00
66021;BME280;52789;59.980;30.346;2023-11-22T04:06:17;102418.75;;;-5.79;100.00
66021;BME280;52789;59.980;30.346;2023-11-22T04:08:45;102417.13;;;-5.86;100.00
66021;BME280;52789;59.980;30.346;2023-11-22T04:11:15;102416.34;;;-5.90;100.00
66021;BME280;52789;59.980;30.346;2023-11-22T04:13:40;102419.84;;;-5.93;100.00
66021;BME280;52789;59.980;30.346;2023-11-22T04:16:06;102387.19;;;-6.13;100.00
66021;BME280;52789;59.980;30.346;2023-11-22T04:18:39;102410.47;;;-6.04;100.00
66021;BME280;52789;59.980;30.346;2023-11-22T04:21:10;102417.38;;;-6.08;100.00
66021;BME280;52789;59.980;30.346;2023-11-22T04:23:36;102409.66;;;-6.11;100.00
66021;BME280;52789;59.980;30.346;2023-11-22T04:26:04;102395.94;;;-6.20;100.00
66021;BME280;52789;59.980;30.346;2023-11-22T04:28:32;102409.66;;;-6.12;100.00
66021;BME280;52789;59.980;30.346;2023-11-22T04:30:58;102369.28;;;-6.32;100.00
66021;BME280;52789;59.980;30.346;2023-11-22T04:33:24;102403.59;;;-6.10;100.00
66021;BME280;52789;59.980;30.346;2023-11-22T04:35:54;102377.75;;;-6.19;100.00
66021;BME280;52789;59.980;30.346;2023-11-22T04:38:19;102404.38;;;-6.02;100.00
66021;BME280;52789;59.980;30.346;2023-11-22T04:40:45;102413.06;;;-6.04;100.00
66021;BME280;52789;59.980;30.346;2023-11-22T04:43:13;102392.41;;;-6.15;100.00
66021;BME280;52789;59.980;30.346;2023-11-22T04:45:38;102405.34;;;-6.12;100.00
66021;BME280;52789;59.980;30.346;2023-11-22T04:48:05;102374.41;;;-6.27;100.00
66021;BME280;52789;59.980;30.346;2023-11-22T04:50:32;102370.03;;;-6.22;100.00
66021;BME280;52789;59.980;30.346;2023-11-22T04:52:58;102382.06;;;-6.16;100.00
66021;BME280;52789;59.980;30.346;2023-11-22T04:58:11;102368.25;;;-6.20;99.98
66021;BME280;52789;59.980;30.346;2023-11-22T05:00:37;102414.69;;;-5.96;100.00
66021;BME280;52789;59.980;30.346;2023-11-22T05:03:02;102375.03;;;-6.05;99.05
66021;BME280;52789;59.980;30.346;2023-11-22T05:05:28;102385.25;;;-5.93;99.42
66021;BME280;52789;59.980;30.346;2023-11-22T05:07:54;102406.66;;;-5.77;98.96
66021;BME280;52789;59.980;30.346;2023-11-22T05:10:19;102380.91;;;-5.91;98.71
66021;BME280;52789;59.980;30.346;2023-11-22T05:12:45;102394.53;;;-5.78;97.87
66021;BME280;52789;59.980;30.346;2023-11-22T05:15:11;102386.94;;;-5.90;98.12
66021;BME280;52789;59.980;30.346;2023-11-22T05:17:37;102380.88;;;-5.89;98.59
66021;BME280;52789;59.980;30.346;2023-11-22T05:20:04;102379.09;;;-5.89;98.14
66021;BME280;52789;59.980;30.346;2023-11-22T05:22:31;102408.44;;;-5.82;97.16
66021;BME280;52789;59.980;30.346;2023-11-22T05:24:56;102407.56;;;-5.81;97.35
66021;BME280;52789;59.980;30.346;2023-11-22T05:27:23;102403.28;;;-5.85;97.19
66021;BME280;52789;59.980;30.346;2023-11-22T05:29:50;102400.66;;;-5.82;97.08
66021;BME280;52789;59.980;30.346;2023-11-22T05:32:15;102394.63;;;-5.84;97.42
66021;BME280;52789;59.980;30.346;2023-11-22T05:34:42;102403.19;;;-5.79;97.37
66021;BME280;52789;59.980;30.346;2023-11-22T05:37:08;102379.09;;;-5.87;97.30
66021;BME280;52789;59.980;30.346;2023-11-22T05:39:34;102369.56;;;-5.85;97.99
66021;BME280;52789;59.980;30.346;2023-11-22T05:41:59;102370.28;;;-5.74;97.70
66021;BME280;52789;59.980;30.346;2023-11-22T05:44:26;102364.31;;;-5.82;97.41
66021;BME280;52789;59.980;30.346;2023-11-22T05:46:51;102392.66;;;-5.64;96.59
66021;BME280;52789;59.980;30.346;2023-11-22T05:49:17;102375.63;;;-5.86;96.36
66021;BME280;52789;59.980;30.346;2023-11-22T05:51:43;102386.66;;;-5.69;96.73
66021;BME280;52789;59.980;30.346;2023-11-22T05:54:09;102352.25;;;-5.86;97.19
66021;BME280;52789;59.980;30.346;2023-11-22T05:56:37;102386.47;;;-5.55;97.23
66021;BME280;52789;59.980;30.346;2023-11-22T05:59:03;102376.88;;;-5.49;97.37
66021;BME280;52789;59.980;30.346;2023-11-22T06:01:29;102373.34;;;-5.45;95.63
66021;BME280;52789;59.980;30.346;2023-11-22T06:03:55;102345.94;;;-5.64;95.00
66021;BME280;52789;59.980;30.346;2023-11-22T06:06:21;102368.16;;;-5.45;94.68
66021;BME280;52789;59.980;30.346;2023-11-22T06:08:47;102361.22;;;-5.43;95.97
66021;BME280;52789;59.980;30.346;2023-11-22T06:11:14;102379.06;;;-5.20;94.81
66021;BME280;52789;59.980;30.346;2023-11-22T06:13:43;102366.97;;;-5.24;94.49
66021;BME280;52789;59.980;30.346;2023-11-22T06:16:12;102386.63;;;-5.06;94.07
66021;BME280;52789;59.980;30.346;2023-11-22T06:18:38;102383.16;;;-5.05;92.83
66021;BME280;52789;59.980;30.346;2023-11-22T06:21:07;102379.72;;;-5.07;93.37
66021;BME280;52789;59.980;30.346;2023-11-22T06:23:34;102380.63;;;-5.10;93.84
66021;BME280;52789;59.980;30.346;2023-11-22T06:25:59;102378.00;;;-5.08;93.44
66021;BME280;52789;59.980;30.346;2023-11-22T06:28:25;102317.97;;;-5.44;92.16
66021;BME280;52789;59.980;30.346;2023-11-22T06:30:50;102384.09;;;-5.09;91.78
66021;BME280;52789;59.980;30.346;2023-11-22T06:33:16;102367.81;;;-5.22;92.29
66021;BME280;52789;59.980;30.346;2023-11-22T06:35:42;102340.38;;;-5.40;92.27
66021;BME280;52789;59.980;30.346;2023-11-22T06:38:08;102333.44;;;-5.38;92.53
66021;BME280;52789;59.980;30.346;2023-11-22T06:40:34;102369.31;;;-5.07;91.49
66021;BME280;52789;59.980;30.346;2023-11-22T06:43:00;102379.63;;;-5.03;91.58
66021;BME280;52789;59.980;30.346;2023-11-22T06:45:26;102359.03;;;-5.13;91.41
66021;BME280;52789;59.980;30.346;2023-11-22T06:47:51;102369.19;;;-5.00;91.11
66021;BME280;52789;59.980;30.346;2023-11-22T06:50:18;102344.31;;;-5.13;91.67
66021;BME280;52789;59.980;30.346;2023-11-22T06:52:43;102354.47;;;-4.99;91.74
66021;BME280;52789;59.980;30.346;2023-11-22T06:55:10;102381.06;;;-4.83;90.50
66021;BME280;52789;59.980;30.346;2023-11-22T06:57:37;102366.41;;;-4.87;90.95
66021;BME280;52789;59.980;30.346;2023-11-22T07:00:04;102321.91;;;-5.20;91.05
66021;BME280;52789;59.980;30.346;2023-11-22T07:02:32;102361.44;;;-5.01;91.08
66021;BME280;52789;59.980;30.346;2023-11-22T07:04:58;102340.81;;;-5.10;91.32
66021;BME280;52789;59.980;30.346;2023-11-22T07:07:26;102369.22;;;-5.01;92.18
66021;BME280;52789;59.980;30.346;2023-11-22T07:09:52;102363.31;;;-5.09;92.30
66021;BME280;52789;59.980;30.346;2023-11-22T07:12:18;102364.34;;;-5.19;92.49
66021;BME280;52789;59.980;30.346;2023-11-22T07:14:45;102331.78;;;-5.42;92.72
66021;BME280;52789;59.980;30.346;2023-11-22T07:17:10;102343.00;;;-5.41;93.04
66021;BME280;52789;59.980;30.346;2023-11-22T07:19:36;102353.41;;;-5.41;92.77
66021;BME280;52789;59.980;30.346;2023-11-22T07:22:04;102353.50;;;-5.47;92.96
66021;BME280;52789;59.980;30.346;2023-11-22T07:24:45;102376.78;;;-5.43;93.51
66021;BME280;52789;59.980;30.346;2023-11-22T07:27:13;102358.69;;;-5.47;93.45
66021;BME280;52789;59.980;30.346;2023-11-22T07:29:41;102350.16;;;-5.58;93.55
66021;BME280;52789;59.980;30.346;2023-11-22T07:32:07;102339.09;;;-5.71;93.87
66021;BME280;52789;59.980;30.346;2023-11-22T07:34:36;102368.34;;;-5.60;94.33
66021;BME280;52789;59.980;30.346;2023-11-22T07:37:02;102315.09;;;-5.88;93.45
66021;BME280;52789;59.980;30.346;2023-11-22T07:39:28;102362.38;;;-5.65;93.86
66021;BME280;52789;59.980;30.346;2023-11-22T07:41:55;102343.47;;;-5.75;93.83
66021;BME280;52789;59.980;30.346;2023-11-22T07:44:21;102344.28;;;-5.70;94.26
66021;BME280;52789;59.980;30.346;2023-11-22T07:46:47;102348.59;;;-5.69;94.44
66021;BME280;52789;59.980;30.346;2023-11-22T07:49:13;102310.00;;;-5.91;94.96
66021;BME280;52789;59.980;30.346;2023-11-22T07:51:41;102315.97;;;-5.88;94.80
66021;BME280;52789;59.980;30.346;2023-11-22T07:54:07;102330.53;;;-5.76;95.63
66021;BME280;52789;59.980;30.346;2023-11-22T07:56:34;102318.53;;;-5.86;95.72
66021;BME280;52789;59.980;30.346;2023-11-22T07:58:59;102308.28;;;-5.93;96.29
66021;BME280;52789;59.980;30.346;2023-11-22T08:01:25;102327.97;;;-5.78;97.26
66021;BME280;52789;59.980;30.346;2023-11-22T08:03:51;102342.59;;;-5.72;97.20
66021;BME280;52789;59.980;30.346;2023-11-22T08:06:17;102340.91;;;-5.79;97.39
66021;BME280;52789;59.980;30.346;2023-11-22T08:08:43;102304.16;;;-6.09;98.33
66021;BME280;52789;59.980;30.346;2023-11-22T08:11:11;102334.06;;;-5.83;97.78
66021;BME280;52789;59.980;30.346;2023-11-22T08:13:41;102291.22;;;-6.12;97.81
66021;BME280;52789;59.980;30.346;2023-11-22T08:16:09;102332.47;;;-5.90;98.45
66021;BME280;52789;59.980;30.346;2023-11-22T08:18:34;102306.66;;;-6.00;99.47
66021;BME280;52789;59.980;30.346;2023-11-22T08:21:00;102325.38;;;-5.81;99.80
66021;BME280;52789;59.980;30.346;2023-11-22T08:23:26;102313.31;;;-5.83;98.96
66021;BME280;52789;59.980;30.346;2023-11-22T08:25:56;102295.31;;;-5.93;98.57
66021;BME280;52789;59.980;30.346;2023-11-22T08:28:22;102304.63;;;-5.82;97.61
66021;BME280;52789;59.980;30.346;2023-11-22T08:30:49;102254.09;;;-6.14;97.71
66021;BME280;52789;59.980;30.346;2023-11-22T08:33:14;102277.28;;;-6.02;98.80
66021;BME280;52789;59.980;30.346;2023-11-22T08:35:40;102284.03;;;-5.90;98.56
66021;BME280;52789;59.980;30.346;2023-11-22T08:38:06;102298.44;;;-5.71;98.21
66021;BME280;52789;59.980;30.346;2023-11-22T08:40:34;102282.06;;;-5.74;97.91
66021;BME280;52789;59.980;30.346;2023-11-22T08:43:04;102290.41;;;-5.55;97.13
66021;BME280;52789;59.980;30.346;2023-11-22T08:45:30;102299.72;;;-5.41;96.15
66021;BME280;52789;59.980;30.346;2023-11-22T08:47:57;102266.97;;;-5.51;95.82
66021;BME280;52789;59.980;30.346;2023-11-22T08:50:24;102278.03;;;-5.37;96.71
66021;BME280;52789;59.980;30.346;2023-11-22T08:52:50;102293.56;;;-5.34;95.96
66021;BME280;52789;59.980;30.346;2023-11-22T08:55:21;102284.13;;;-5.39;96.86
66021;BME280;52789;59.980;30.346;2023-11-22T08:57:48;102293.59;;;-5.37;96.51
66021;BME280;52789;59.980;30.346;2023-11-22T09:00:16;102258.44;;;-5.57;96.51
66021;BME280;52789;59.980;30.346;2023-11-22T09:02:48;102254.19;;;-5.62;95.82
66021;BME280;52789;59.980;30.346;2023-11-22T09:05:14;102264.59;;;-5.63;96.38
66021;BME280;52789;59.980;30.346;2023-11-22T09:07:42;102256.19;;;-5.80;96.62
66021;BME280;52789;59.980;30.346;2023-11-22T09:10:10;102267.38;;;-5.75;97.49
66021;BME280;52789;59.980;30.346;2023-11-22T09:12:41;102255.34;;;-5.82;97.16
66021;BME280;52789;59.980;30.346;2023-11-22T09:15:09;102261.38;;;-5.80;98.05
66021;BME280;52789;59.980;30.346;2023-11-22T09:17:39;102265.59;;;-5.72;97.79
66021;BME280;52789;59.980;30.346;2023-11-22T09:20:15;102249.22;;;-5.78;98.26
66021;BME280;52789;59.980;30.346;2023-11-22T09:22:42;102250.78;;;-5.65;99.30
66021;BME280;52789;59.980;30.346;2023-11-22T09:25:11;102247.22;;;-5.59;98.39
66021;BME280;52789;59.980;30.346;2023-11-22T09:27:37;102259.94;;;-5.43;97.57
66021;BME280;52789;59.980;30.346;2023-11-22T09:30:04;102231.63;;;-5.58;95.59
66021;BME280;52789;59.980;30.346;2023-11-22T09:32:30;102248.75;;;-5.45;96.11
66021;BME280;52789;59.980;30.346;2023-11-22T09:34:56;102235.84;;;-5.51;96.23
66021;BME280;52789;59.980;30.346;2023-11-22T09:37:24;102216.00;;;-5.55;96.46
66021;BME280;52789;59.980;30.346;2023-11-22T09:39:51;102240.78;;;-5.36;95.85
66021;BME280;52789;59.980;30.346;2023-11-22T09:42:16;102220.94;;;-5.40;95.26
66021;BME280;52789;59.980;30.346;2023-11-22T09:44:42;102237.25;;;-5.32;95.50
66021;BME280;52789;59.980;30.346;2023-11-22T09:47:09;102200.31;;;-5.47;95.67
66021;BME280;52789;59.980;30.346;2023-11-22T09:49:37;102215.53;;;-5.27;94.80
66021;BME280;52789;59.980;30.346;2023-11-22T09:52:08;102230.19;;;-5.23;94.17
66021;BME280;52789;59.980;30.346;2023-11-22T09:54:37;102245.72;;;-5.19;94.01
66021;BME280;52789;59.980;30.346;2023-11-22T09:57:06;102228.41;;;-5.21;93.61
66021;BME280;52789;59.980;30.346;2023-11-22T09:59:39;102179.59;;;-5.52;93.96
66021;BME280;52789;59.980;30.346;2023-11-22T10:02:05;102196.81;;;-5.45;93.73
66021;BME280;52789;59.980;30.346;2023-11-22T10:04:32;102196.81;;;-5.45;94.20
66021;BME280;52789;59.980;30.346;2023-11-22T10:06:57;102198.50;;;-5.42;94.58
66021;BME280;52789;59.980;30.346;2023-11-22T10:09:26;102207.94;;;-5.38;94.23
66021;BME280;52789;59.980;30.346;2023-11-22T10:12:01;102196.00;;;-5.47;94.12
66021;BME280;52789;59.980;30.346;2023-11-22T10:14:27;102193.22;;;-5.38;94.04
66021;BME280;52789;59.980;30.346;2023-11-22T10:17:00;102200.81;;;-5.27;94.59
66021;BME280;52789;59.980;30.346;2023-11-22T10:19:26;102171.50;;;-5.34;94.26
66021;BME280;52789;59.980;30.346;2023-11-22T10:22:07;102142.34;;;-5.48;94.28
66021;BME280;52789;59.980;30.346;2023-11-22T10:24:33;102179.88;;;-5.16;93.11
66021;BME280;52789;59.980;30.346;2023-11-22T10:27:00;102170.31;;;-5.14;92.63
66021;BME280;52789;59.980;30.346;2023-11-22T10:29:28;102187.28;;;-4.96;92.55
66021;BME280;52789;59.980;30.346;2023-11-22T10:31:54;102164.09;;;-5.07;91.86
66021;BME280;52789;59.980;30.346;2023-11-22T10:34:24;102177.72;;;-4.96;91.71
66021;BME280;52789;59.980;30.346;2023-11-22T10:36:50;102175.88;;;-4.88;91.75
66021;BME280;52789;59.980;30.346;2023-11-22T10:39:20;102186.97;;;-4.80;91.19
66021;BME280;52789;59.980;30.346;2023-11-22T10:41:45;102168.00;;;-4.85;90.13
66021;BME280;52789;59.980;30.346;2023-11-22T10:44:11;102180.03;;;-4.79;88.79
66021;BME280;52789;59.980;30.346;2023-11-22T10:46:39;102148.50;;;-5.07;88.50
66021;BME280;52789;59.980;30.346;2023-11-22T10:49:05;102153.66;;;-5.04;88.59
66021;BME280;52789;59.980;30.346;2023-11-22T10:51:32;102103.88;;;-5.27;89.00
66021;BME280;52789;59.980;30.346;2023-11-22T10:54:00;102164.66;;;-4.90;88.71
66021;BME280;52789;59.980;30.346;2023-11-22T10:56:35;102157.44;;;-4.77;88.93
66021;BME280;52789;59.980;30.346;2023-11-22T10:59:06;102170.66;;;-4.46;87.35
66021;BME280;52789;59.980;30.346;2023-11-22T11:01:35;102138.97;;;-4.63;85.32
66021;BME280;52789;59.980;30.346;2023-11-22T11:04:02;102140.69;;;-4.64;85.46
66021;BME280;52789;59.980;30.346;2023-11-22T11:06:34;102096.44;;;-5.01;85.24
66021;BME280;52789;59.980;30.346;2023-11-22T11:09:02;102170.25;;;-4.68;84.25
66021;BME280;52789;59.980;30.346;2023-11-22T11:11:34;102157.63;;;-4.85;84.84
66021;BME280;52789;59.980;30.346;2023-11-22T11:14:00;102142.31;;;-5.00;83.72
66021;BME280;52789;59.980;30.346;2023-11-22T11:16:27;102137.38;;;-5.12;84.48
66021;BME280;52789;59.980;30.346;2023-11-22T11:18:53;102149.28;;;-5.02;84.91
66021;BME280;52789;59.980;30.346;2023-11-22T11:21:20;102144.34;;;-5.14;84.70
66021;BME280;52789;59.980;30.346;2023-11-22T11:23:46;102152.25;;;-5.20;85.12
66021;BME280;52789;59.980;30.346;2023-11-22T11:26:16;102090.44;;;-5.49;85.64
66021;BME280;52789;59.980;30.346;2023-11-22T11:28:47;102107.75;;;-5.48;85.83
66021;BME280;52789;59.980;30.346;2023-11-22T11:31:15;102136.09;;;-5.38;86.88
66021;BME280;52789;59.980;30.346;2023-11-22T11:36:27;102117.75;;;-5.28;85.88
66021;BME280;52789;59.980;30.346;2023-11-22T11:38:55;102079.84;;;-5.37;85.58
66021;BME280;52789;59.980;30.346;2023-11-22T11:41:26;102101.00;;;-5.12;85.98
66021;BME280;52789;59.980;30.346;2023-11-22T11:43:53;102109.50;;;-5.04;85.41
66021;BME280;52789;59.980;30.346;2023-11-22T11:46:20;102105.97;;;-5.02;84.93
66021;BME280;52789;59.980;30.346;2023-11-22T11:48:49;102112.72;;;-4.93;84.86
66021;BME280;52789;59.980;30.346;2023-11-22T11:51:23;102042.44;;;-5.28;85.06
66021;BME280;52789;59.980;30.346;2023-11-22T11:53:49;102071.28;;;-4.99;85.27
66021;BME280;52789;59.980;30.346;2023-11-22T11:56:15;102084.03;;;-4.87;84.98
66021;BME280;52789;59.980;30.346;2023-11-22T11:58:42;102098.59;;;-4.80;85.23
66021;BME280;52789;59.980;30.346;2023-11-22T12:01:18;102051.53;;;-5.08;85.46
66021;BME280;52789;59.980;30.346;2023-11-22T12:03:47;102066.16;;;-5.02;85.33
66021;BME280;52789;59.980;30.346;2023-11-22T12:06:17;102059.25;;;-5.03;85.97
66021;BME280;52789;59.980;30.346;2023-11-22T12:08:44;102030.19;;;-5.20;85.28
66021;BME280;52789;59.980;30.346;2023-11-22T12:11:10;102076.31;;;-4.90;86.17
66021;BME280;52789;59.980;30.346;2023-11-22T12:13:37;102044.66;;;-5.09;86.12
66021;BME280;52789;59.980;30.346;2023-11-22T12:16:14;102046.28;;;-5.05;86.72
66021;BME280;52789;59.980;30.346;2023-11-22T12:18:49;102048.84;;;-5.03;87.94
66021;BME280;52789;59.980;30.346;2023-11-22T12:21:17;102065.94;;;-4.93;88.05
66021;BME280;52789;59.980;30.346;2023-11-22T12:23:44;102054.66;;;-4.92;88.18
66021;BME280;52789;59.980;30.346;2023-11-22T12:26:12;102023.75;;;-5.04;88.85
66021;BME280;52789;59.980;30.346;2023-11-22T12:28:45;102004.03;;;-5.13;88.41
66021;BME280;52789;59.980;30.346;2023-11-22T12:31:14;102032.03;;;-4.85;88.32
66021;BME280;52789;59.980;30.346;2023-11-22T12:33:41;102033.56;;;-4.77;88.61
66021;BME280;52789;59.980;30.346;2023-11-22T12:36:08;101961.66;;;-5.15;88.63
66021;BME280;52789;59.980;30.346;2023-11-22T12:38:35;102017.22;;;-4.82;88.90
66021;BME280;52789;59.980;30.346;2023-11-22T12:41:02;102017.16;;;-4.79;89.18